Time;durP1;ratioP1;P1;durP2;ratioP2;P2;SDS_P1;SDS_P2;PMS_P1;PMS_P2;Temp;Humidity;BMP_temperature;BMP_pressure;BME280_temperature;BME280_humidity;BME280_pressure;Samples;Min_cycle;Max_cycle;Signal;HPM_P1;HPM_P2
2021/02/10 00:00:52;;;;;;;12.6;5.7;;;;;;;;;;;;;
2021/02/10 00:03:17;;;;;;;5.4;4.2;;;;;;;;;;;;;
2021/02/10 00:05:47;;;;;;;8;5.1;;;;;;;;;;;;;
2021/02/10 00:08:12;;;;;;;14.7;5;;;;;;;;;;;;;
2021/02/10 00:10:39;;;;;;;12.9;6.2;;;;;;;;;;;;;
2021/02/10 00:13:04;;;;;;;7.6;4.1;;;;;;;;;;;;;
2021/02/10 00:15:32;;;;;;;13.2;5.4;;;;;;;;;;;;;
2021/02/10 00:17:59;;;;;;;12.4;5.6;;;;;;;;;;;;;
2021/02/10 00:20:29;;;;;;;10.3;6.6;;;;;;;;;;;;;
2021/02/10 00:22:56;;;;;;;9;4.5;;;;;;;;;;;;;
2021/02/10 00:25:21;;;;;;;12;5.8;;;;;;;;;;;;;
2021/02/10 00:27:46;;;;;;;6.8;4.4;;;;;;;;;;;;;
2021/02/10 00:30:11;;;;;;;5.6;4.6;;;;;;;;;;;;;
2021/02/10 00:32:37;;;;;;;12.6;6.3;;;;;;;;;;;;;
2021/02/10 00:35:02;;;;;;;7.5;4.6;;;;;;;;;;;;;
2021/02/10 00:37:28;;;;;;;4.9;3.5;;;;;;;;;;;;;
2021/02/10 00:39:54;;;;;;;9.7;5.2;;;;;;;;;;;;;
2021/02/10 00:42:21;;;;;;;5.2;4.3;;;;;;;;;;;;;
2021/02/10 00:44:46;;;;;;;7.8;5.2;;;;;;;;;;;;;
2021/02/10 00:47:11;;;;;;;12;4.8;;;;;;;;;;;;;
2021/02/10 00:49:37;;;;;;;7.3;4.7;;;;;;;;;;;;;
2021/02/10 00:52:02;;;;;;;9;4;;;;;;;;;;;;;
2021/02/10 00:54:28;;;;;;;7.5;4.7;;;;;;;;;;;;;
2021/02/10 00:56:53;;;;;;;11.7;6.1;;;;;;;;;;;;;
2021/02/10 00:59:19;;;;;;;13.7;7.2;;;;;;;;;;;;;
2021/02/10 01:01:45;;;;;;;6.3;4;;;;;;;;;;;;;
2021/02/10 01:04:10;;;;;;;11.8;6.8;;;;;;;;;;;;;
2021/02/10 01:06:37;;;;;;;10.4;4.2;;;;;;;;;;;;;
2021/02/10 01:09:03;;;;;;;9.7;4.1;;;;;;;;;;;;;
2021/02/10 01:11:31;;;;;;;6.6;4;;;;;;;;;;;;;
2021/02/10 01:13:55;;;;;;;5.7;3.9;;;;;;;;;;;;;
2021/02/10 01:16:30;;;;;;;11.1;5.1;;;;;;;;;;;;;
2021/02/10 01:18:57;;;;;;;5.9;3.8;;;;;;;;;;;;;
2021/02/10 01:21:26;;;;;;;10.6;5.1;;;;;;;;;;;;;
2021/02/10 01:23:55;;;;;;;8.7;4.8;;;;;;;;;;;;;
2021/02/10 01:26:21;;;;;;;10.7;5.3;;;;;;;;;;;;;
2021/02/10 01:28:46;;;;;;;5.4;2.9;;;;;;;;;;;;;
2021/02/10 01:31:11;;;;;;;6.2;4;;;;;;;;;;;;;
2021/02/10 01:33:37;;;;;;;7;4.5;;;;;;;;;;;;;
2021/02/10 01:36:03;;;;;;;8.2;4.6;;;;;;;;;;;;;
2021/02/10 01:38:29;;;;;;;13;5;;;;;;;;;;;;;
2021/02/10 01:40:54;;;;;;;13.4;5.4;;;;;;;;;;;;;
2021/02/10 01:43:20;;;;;;;5.9;4;;;;;;;;;;;;;
2021/02/10 01:45:47;;;;;;;12;5.4;;;;;;;;;;;;;
2021/02/10 01:48:14;;;;;;;6.4;4.1;;;;;;;;;;;;;
2021/02/10 01:50:40;;;;;;;6.8;4.2;;;;;;;;;;;;;
2021/02/10 01:53:05;;;;;;;9.5;4.4;;;;;;;;;;;;;
2021/02/10 01:55:30;;;;;;;8.4;3.8;;;;;;;;;;;;;
2021/02/10 01:57:56;;;;;;;5.9;3.8;;;;;;;;;;;;;
2021/02/10 02:00:21;;;;;;;8;4.9;;;;;;;;;;;;;
2021/02/10 02:02:47;;;;;;;12.2;5.1;;;;;;;;;;;;;
2021/02/10 02:05:12;;;;;;;6.2;3.8;;;;;;;;;;;;;
2021/02/10 02:07:37;;;;;;;7;3.9;;;;;;;;;;;;;
2021/02/10 02:10:02;;;;;;;9;4.9;;;;;;;;;;;;;
2021/02/10 02:12:27;;;;;;;10.4;5.6;;;;;;;;;;;;;
2021/02/10 02:14:54;;;;;;;10.1;3.7;;;;;;;;;;;;;
2021/02/10 02:17:27;;;;;;;9;4.8;;;;;;;;;;;;;
2021/02/10 02:19:55;;;;;;;7.3;4.4;;;;;;;;;;;;;
2021/02/10 02:22:20;;;;;;;8.2;3.4;;;;;;;;;;;;;
2021/02/10 02:24:48;;;;;;;7.9;4.5;;;;;;;;;;;;;
2021/02/10 02:27:18;;;;;;;9.6;5.2;;;;;;;;;;;;;
2021/02/10 02:29:43;;;;;;;5;2.3;;;;;;;;;;;;;
2021/02/10 02:32:09;;;;;;;7.3;4.1;;;;;;;;;;;;;
2021/02/10 02:34:34;;;;;;;8.6;4.5;;;;;;;;;;;;;
2021/02/10 02:37:00;;;;;;;8.2;4.4;;;;;;;;;;;;;
2021/02/10 02:39:25;;;;;;;9.6;4.5;;;;;;;;;;;;;
2021/02/10 03:51:58;;;;;;;7.1;4.3;;;;;;;;;;;;;
2021/02/10 03:54:26;;;;;;;10.4;6.3;;;;;;;;;;;;;
2021/02/10 03:56:55;;;;;;;11.1;6.2;;;;;;;;;;;;;
2021/02/10 03:59:20;;;;;;;13.1;7;;;;;;;;;;;;;
2021/02/10 04:02:33;;;;;;;14.2;6.8;;;;;;;1.94;86.73828;919.2004;;;;
2021/02/10 04:05:05;;;;;;;11.3;6.7;;;;;;;2.02;86.47656;919.1788;;;;
2021/02/10 04:07:36;;;;;;;17;7.4;;;;;;;1.87;86.88184;919.1551;;;;
2021/02/10 04:10:15;;;;;;;14.7;7.1;;;;;;;1.94;86.93945;919.1157;;;;
2021/02/10 04:12:42;;;;;;;14.9;6.7;;;;;;;1.75;87.80664;919.2241;;;;
2021/02/10 04:15:11;;;;;;;9.2;5.4;;;;;;;1.75;88.01953;919.2374;;;;
2021/02/10 04:17:46;;;;;;;12.7;7.2;;;;;;;1.72;88.02539;919.2505;;;;
2021/02/10 04:20:18;;;;;;;11.6;6.3;;;;;;;1.76;88.00098;919.2367;;;;
2021/02/10 04:22:44;;;;;;;17.5;9;;;;;;;1.68;88.23926;919.2061;;;;
2021/02/10 04:25:16;;;;;;;7.2;4.3;;;;;;;1.81;87.99902;919.2447;;;;
2021/02/10 04:27:42;;;;;;;14.5;7.1;;;;;;;1.7;88.17773;919.2416;;;;
2021/02/10 04:30:08;;;;;;;13.4;6.9;;;;;;;1.77;88.05859;919.2047;;;;
2021/02/10 04:32:34;;;;;;;9.9;6.2;;;;;;;1.75;88.2002;919.2249;;;;
2021/02/10 04:34:59;;;;;;;13.2;6;;;;;;;1.77;88.3252;919.2839;;;;
2021/02/10 04:37:27;;;;;;;8.5;4.8;;;;;;;1.9;87.98438;919.2299;;;;
2021/02/10 04:39:55;;;;;;;15.4;7.8;;;;;;;1.93;87.58691;919.213;;;;
2021/02/10 04:42:21;;;;;;;15;7.2;;;;;;;1.85;87.82715;919.2537;;;;
2021/02/10 04:44:46;;;;;;;8.2;5.1;;;;;;;1.94;87.56836;919.2484;;;;
2021/02/10 04:47:12;;;;;;;13.1;7.6;;;;;;;1.97;87.26074;919.233;;;;
2021/02/10 04:49:37;;;;;;;12.1;7.5;;;;;;;1.78;87.85742;919.2142;;;;
2021/02/10 04:52:02;;;;;;;8.7;5.2;;;;;;;1.68;88.62109;919.2586;;;;
2021/02/10 04:54:27;;;;;;;11.1;6.5;;;;;;;1.81;88.42383;919.2203;;;;
2021/02/10 04:56:53;;;;;;;11.6;6.4;;;;;;;1.95;87.7832;919.2767;;;;
2021/02/10 04:59:23;;;;;;;13.4;7;;;;;;;1.95;87.62402;919.2555;;;;
2021/02/10 05:01:48;;;;;;;12.8;7.9;;;;;;;1.99;87.37598;919.2355;;;;
2021/02/10 05:04:15;;;;;;;12.2;7.1;;;;;;;2.05;87.20996;919.2475;;;;
2021/02/10 05:06:42;;;;;;;12.9;6.5;;;;;;;2.15;86.77148;919.1989;;;;
2021/02/10 05:09:07;;;;;;;11.2;6.9;;;;;;;2.2;86.43555;919.2285;;;;
2021/02/10 05:11:35;;;;;;;16.4;6.8;;;;;;;2.07;86.88867;919.1753;;;;
2021/02/10 05:14:01;;;;;;;13.1;7.3;;;;;;;1.97;87.11523;919.1875;;;;
2021/02/10 05:16:37;;;;;;;10.5;6.6;;;;;;;1.91;87.45117;919.1335;;;;
2021/02/10 05:19:09;;;;;;;13.3;7.1;;;;;;;1.94;87.57715;919.1581;;;;
2021/02/10 05:21:35;;;;;;;17.4;7.5;;;;;;;1.89;87.81445;919.1624;;;;
2021/02/10 05:24:00;;;;;;;14.3;7.7;;;;;;;2;87.38965;919.1638;;;;
2021/02/10 05:26:25;;;;;;;18.7;8;;;;;;;2.01;87.2793;919.0876;;;;
2021/02/10 05:28:58;;;;;;;14.5;6.6;;;;;;;2.07;86.96777;919.1189;;;;
2021/02/10 05:31:30;;;;;;;18.2;7.5;;;;;;;2.03;87.1709;919.1106;;;;
2021/02/10 05:33:59;;;;;;;15.5;7.3;;;;;;;2.01;87.20117;919.0931;;;;
2021/02/10 05:36:32;;;;;;;18.9;8.5;;;;;;;2.1;86.97266;919.1153;;;;
2021/02/10 05:39:02;;;;;;;12.1;7.6;;;;;;;2.1;87.08496;919.0775;;;;
2021/02/10 05:41:35;;;;;;;19.8;8.5;;;;;;;2.12;87.09961;919;;;;
2021/02/10 05:44:02;;;;;;;11;6.2;;;;;;;2.13;86.97852;919.0433;;;;
2021/02/10 05:46:31;;;;;;;14.5;8;;;;;;;2.09;87.00293;919.0633;;;;
2021/02/10 05:48:59;;;;;;;12;6.6;;;;;;;2.1;86.9502;919.0988;;;;
2021/02/10 05:51:31;;;;;;;14.5;7.6;;;;;;;2.09;87.03809;919.1136;;;;
2021/02/10 05:53:56;;;;;;;15;7.2;;;;;;;2.1;86.99512;919.1042;;;;
2021/02/10 05:56:29;;;;;;;17.6;8.5;;;;;;;2.16;86.67285;919.1002;;;;
2021/02/10 05:58:54;;;;;;;8.1;5.4;;;;;;;2.12;86.50684;919.0095;;;;
2021/02/10 06:01:24;;;;;;;27;8.8;;;;;;;2.09;86.69141;919.0994;;;;
2021/02/10 06:03:56;;;;;;;17.4;8.7;;;;;;;2.12;86.63184;919.1194;;;;
2021/02/10 06:06:27;;;;;;;16.8;7.9;;;;;;;2.17;86.62793;919.0899;;;;
2021/02/10 06:08:56;;;;;;;15.9;7.9;;;;;;;2.17;86.75293;919.1395;;;;
2021/02/10 06:11:21;;;;;;;18.2;7.9;;;;;;;2.21;86.7041;919.133;;;;
2021/02/10 06:13:46;;;;;;;18.7;8.1;;;;;;;2.27;86.45898;919.008;;;;
2021/02/10 06:16:23;;;;;;;18;7.8;;;;;;;2.31;86.33203;919.0256;;;;
2021/02/10 06:18:49;;;;;;;16.4;8.6;;;;;;;2.26;86.37695;919.0558;;;;
2021/02/10 06:21:16;;;;;;;17.9;7.9;;;;;;;2.26;86.29004;918.9906;;;;
2021/02/10 06:23:47;;;;;;;17.1;7.9;;;;;;;2.31;86.06348;918.9863;;;;
2021/02/10 06:26:12;;;;;;;13.8;7.4;;;;;;;2.32;85.99805;918.9919;;;;
2021/02/10 06:28:42;;;;;;;16;8.4;;;;;;;2.27;86.1123;919.0181;;;;
2021/02/10 06:31:07;;;;;;;12.5;7.1;;;;;;;2.27;85.88965;918.9711;;;;
2021/02/10 06:33:32;;;;;;;10.5;6.6;;;;;;;2.35;85.36719;919.0574;;;;
2021/02/10 06:35:57;;;;;;;14.6;6.1;;;;;;;2.43;84.95801;919.0269;;;;
2021/02/10 06:38:22;;;;;;;16.7;8;;;;;;;2.44;84.83594;919.0144;;;;
2021/02/10 06:40:51;;;;;;;12;6.9;;;;;;;2.51;84.83789;919.0417;;;;
2021/02/10 06:43:16;;;;;;;15.9;8.1;;;;;;;2.52;84.79492;919.0558;;;;
2021/02/10 06:45:41;;;;;;;13.8;7.4;;;;;;;2.44;85.13867;919.005;;;;
2021/02/10 06:48:07;;;;;;;12.3;7.5;;;;;;;2.44;85.22852;918.972;;;;
2021/02/10 06:50:32;;;;;;;18;8.1;;;;;;;2.48;85.18164;918.9613;;;;
2021/02/10 06:53:00;;;;;;;12.7;7.2;;;;;;;2.37;85.70508;918.9498;;;;
2021/02/10 06:55:26;;;;;;;19.5;8.9;;;;;;;2.41;85.61328;918.9843;;;;
2021/02/10 06:57:53;;;;;;;12.6;7.8;;;;;;;2.5;84.9502;918.9504;;;;
2021/02/10 07:00:19;;;;;;;12.7;7.8;;;;;;;2.53;85.13477;919.0167;;;;
2021/02/10 07:02:44;;;;;;;14.9;7.1;;;;;;;2.59;85.0459;918.9347;;;;
2021/02/10 07:05:12;;;;;;;16.3;7.9;;;;;;;2.69;84.80664;918.9443;;;;
2021/02/10 07:07:40;;;;;;;14.7;7.5;;;;;;;2.71;84.55371;918.9554;;;;
2021/02/10 07:10:03;;;;;;;15.6;8;;;;;;;2.65;84.65332;918.9708;;;;
2021/02/10 07:12:31;;;;;;;18.3;7.4;;;;;;;2.48;84.89941;919.0084;;;;
2021/02/10 07:15:02;;;;;;;16.4;8;;;;;;;2.48;85.125;919.0391;;;;
2021/02/10 07:17:30;;;;;;;17.2;6.9;;;;;;;2.43;85.21582;919.0427;;;;
2021/02/10 07:20:01;;;;;;;15.9;7.4;;;;;;;2.41;85.58008;919.0628;;;;
2021/02/10 07:22:32;;;;;;;15.8;8.4;;;;;;;2.36;85.69336;919.103;;;;
2021/02/10 07:25:04;;;;;;;15.6;5.6;;;;;;;2.29;86.02637;919.0843;;;;
2021/02/10 07:27:34;;;;;;;18.7;8.2;;;;;;;2.33;86.51758;919.1483;;;;
2021/02/10 07:30:05;;;;;;;14.4;6.8;;;;;;;2.48;86.38965;919.1788;;;;
2021/02/10 07:32:30;;;;;;;14.9;8.2;;;;;;;2.59;85.61816;919.1515;;;;
2021/02/10 07:34:56;;;;;;;13.8;7.8;;;;;;;2.61;85.28516;919.1763;;;;
2021/02/10 07:37:29;;;;;;;14.6;7.3;;;;;;;2.55;85.14941;919.1928;;;;
2021/02/10 07:39:55;;;;;;;16.1;7.8;;;;;;;2.56;85.55469;919.1984;;;;
2021/02/10 07:42:27;;;;;;;16.2;7.7;;;;;;;2.68;85.43457;919.2239;;;;
2021/02/10 07:44:52;;;;;;;10.2;6;;;;;;;2.86;85.23535;919.1517;;;;
2021/02/10 07:47:23;;;;;;;15.4;8.2;;;;;;;2.85;84.07813;919.1933;;;;
2021/02/10 07:49:53;;;;;;;13.5;7.1;;;;;;;2.9;84.40137;919.1535;;;;
2021/02/10 07:52:21;;;;;;;13;6.6;;;;;;;2.96;84.41406;919.051;;;;
2021/02/10 07:54:48;;;;;;;9.2;5.7;;;;;;;;;;;;;
2021/02/10 07:57:13;;;;;;;12.9;6.6;;;;;;;;;;;;;
2021/02/10 07:59:39;;;;;;;15.7;7.6;;;;;;;;;;;;;
2021/02/10 08:02:04;;;;;;;11.9;7.1;;;;;;;;;;;;;
2021/02/10 08:04:30;;;;;;;10.8;6.3;;;;;;;;;;;;;
2021/02/10 08:06:55;;;;;;;17.5;7.7;;;;;;;;;;;;;
2021/02/10 08:09:21;;;;;;;18.8;7;;;;;;;;;;;;;
2021/02/10 08:11:46;;;;;;;13.6;7.4;;;;;;;;;;;;;
2021/02/10 08:14:14;;;;;;;12.4;6.6;;;;;;;;;;;;;
2021/02/10 08:16:39;;;;;;;17.1;7.2;;;;;;;;;;;;;
2021/02/10 08:19:04;;;;;;;17.5;6.7;;;;;;;;;;;;;
2021/02/10 08:21:30;;;;;;;14.9;7.9;;;;;;;;;;;;;
2021/02/10 08:23:55;;;;;;;15.6;7.4;;;;;;;;;;;;;
2021/02/10 08:26:20;;;;;;;11.7;6.4;;;;;;;;;;;;;
2021/02/10 08:28:45;;;;;;;13.4;6.7;;;;;;;;;;;;;
2021/02/10 08:31:10;;;;;;;13.4;6.7;;;;;;;;;;;;;
2021/02/10 08:33:37;;;;;;;15.9;7.2;;;;;;;;;;;;;
2021/02/10 08:36:02;;;;;;;11.5;6.6;;;;;;;;;;;;;
2021/02/10 08:38:27;;;;;;;12.4;6.3;;;;;;;;;;;;;
2021/02/10 08:40:52;;;;;;;10.9;6.1;;;;;;;;;;;;;
2021/02/10 08:43:19;;;;;;;13;6.3;;;;;;;;;;;;;
2021/02/10 08:45:44;;;;;;;10;6.2;;;;;;;;;;;;;
2021/02/10 08:48:10;;;;;;;14.4;6.1;;;;;;;;;;;;;
2021/02/10 08:50:35;;;;;;;12.1;7;;;;;;;;;;;;;
2021/02/10 08:53:01;;;;;;;14;6.6;;;;;;;;;;;;;
2021/02/10 08:55:26;;;;;;;15.7;7.3;;;;;;;;;;;;;
2021/02/10 08:57:53;;;;;;;15.6;7.1;;;;;;;;;;;;;
2021/02/10 09:00:18;;;;;;;12.8;7.3;;;;;;;;;;;;;
2021/02/10 09:02:43;;;;;;;8.8;5.9;;;;;;;;;;;;;
2021/02/10 09:05:08;;;;;;;11.2;6.2;;;;;;;;;;;;;
2021/02/10 09:07:34;;;;;;;17.8;6;;;;;;;;;;;;;
2021/02/10 09:09:59;;;;;;;15.4;6.6;;;;;;;;;;;;;
2021/02/10 09:12:26;;;;;;;13.1;5.6;;;;;;;;;;;;;
2021/02/10 09:14:52;;;;;;;11.6;5.4;;;;;;;;;;;;;
2021/02/10 09:17:19;;;;;;;11;5.9;;;;;;;;;;;;;
2021/02/10 09:19:44;;;;;;;8.1;5.4;;;;;;;;;;;;;
2021/02/10 09:22:09;;;;;;;6.6;4.2;;;;;;;;;;;;;
2021/02/10 09:24:34;;;;;;;7.9;4.1;;;;;;;;;;;;;
2021/02/10 09:27:00;;;;;;;7.3;4;;;;;;;;;;;;;
2021/02/10 09:29:26;;;;;;;4.4;3.2;;;;;;;;;;;;;
2021/02/10 09:31:55;;;;;;;5.7;3.8;;;;;;;;;;;;;
2021/02/10 09:34:19;;;;;;;7.9;3.4;;;;;;;;;;;;;
2021/02/10 09:36:48;;;;;;;6;4;;;;;;;;;;;;;
2021/02/10 09:39:12;;;;;;;10.4;3;;;;;;;;;;;;;
2021/02/10 09:41:39;;;;;;;7.1;2.9;;;;;;;;;;;;;
2021/02/10 09:44:03;;;;;;;6.3;2.9;;;;;;;;;;;;;
2021/02/10 09:46:29;;;;;;;8.7;3.1;;;;;;;;;;;;;
2021/02/10 09:48:54;;;;;;;7.6;4;;;;;;;;;;;;;
2021/02/10 09:51:20;;;;;;;9.3;3.6;;;;;;;;;;;;;
2021/02/10 09:53:45;;;;;;;5.2;3.7;;;;;;;;;;;;;
2021/02/10 09:56:11;;;;;;;8.1;5.2;;;;;;;;;;;;;
2021/02/10 09:58:36;;;;;;;5.8;2.8;;;;;;;;;;;;;
2021/02/10 10:01:04;;;;;;;6.3;3.5;;;;;;;;;;;;;
2021/02/10 10:03:29;;;;;;;8.3;5.3;;;;;;;;;;;;;
2021/02/10 10:05:55;;;;;;;7.4;4.1;;;;;;;;;;;;;
2021/02/10 10:08:20;;;;;;;4.9;3.4;;;;;;;;;;;;;
2021/02/10 10:10:45;;;;;;;5;3.7;;;;;;;;;;;;;
2021/02/10 10:13:10;;;;;;;6.2;4.2;;;;;;;;;;;;;
2021/02/10 10:15:44;;;;;;;6.5;3.7;;;;;;;;;;;;;
2021/02/10 10:18:10;;;;;;;5.2;3.3;;;;;;;;;;;;;
2021/02/10 10:20:44;;;;;;;6.8;4;;;;;;;;;;;;;
2021/02/10 10:23:11;;;;;;;7.5;4;;;;;;;;;;;;;
2021/02/10 10:25:36;;;;;;;9.6;4.6;;;;;;;;;;;;;
2021/02/10 10:28:03;;;;;;;8.5;3.2;;;;;;;;;;;;;
2021/02/10 10:30:28;;;;;;;6.3;3.4;;;;;;;;;;;;;
2021/02/10 10:32:55;;;;;;;7.4;3.5;;;;;;;;;;;;;
2021/02/10 10:35:20;;;;;;;5.5;3.9;;;;;;;;;;;;;
2021/02/10 10:37:46;;;;;;;8.3;4.8;;;;;;;;;;;;;
2021/02/10 10:40:11;;;;;;;11.7;5.6;;;;;;;;;;;;;
2021/02/10 10:42:37;;;;;;;9.8;6;;;;;;;;;;;;;
2021/02/10 10:45:01;;;;;;;7.7;4.6;;;;;;;;;;;;;
2021/02/10 10:47:28;;;;;;;12.4;6.3;;;;;;;;;;;;;
2021/02/10 10:49:54;;;;;;;10.4;5.9;;;;;;;;;;;;;
2021/02/10 10:52:20;;;;;;;8.9;5.5;;;;;;;;;;;;;
2021/02/10 10:54:45;;;;;;;8.7;4.6;;;;;;;;;;;;;
2021/02/10 10:57:11;;;;;;;10.2;5.9;;;;;;;;;;;;;
2021/02/10 10:59:37;;;;;;;7.5;4.1;;;;;;;;;;;;;
2021/02/10 11:02:02;;;;;;;6;3.7;;;;;;;;;;;;;
2021/02/10 11:04:27;;;;;;;6.3;4.3;;;;;;;;;;;;;
2021/02/10 11:06:53;;;;;;;5.9;3.9;;;;;;;;;;;;;
2021/02/10 11:09:18;;;;;;;6.9;3.9;;;;;;;;;;;;;
2021/02/10 11:11:48;;;;;;;8.9;4.8;;;;;;;;;;;;;
2021/02/10 11:14:13;;;;;;;8.5;4.3;;;;;;;;;;;;;
2021/02/10 11:16:44;;;;;;;6.5;4;;;;;;;;;;;;;
2021/02/10 11:19:13;;;;;;;7.3;3.6;;;;;;;;;;;;;
2021/02/10 11:21:43;;;;;;;8.2;4.1;;;;;;;;;;;;;
2021/02/10 11:24:09;;;;;;;7.2;3.8;;;;;;;;;;;;;
2021/02/10 11:26:37;;;;;;;6.8;3.9;;;;;;;;;;;;;
2021/02/10 11:29:02;;;;;;;6.2;3.9;;;;;;;;;;;;;
2021/02/10 11:31:28;;;;;;;6.4;3.6;;;;;;;;;;;;;
2021/02/10 11:33:53;;;;;;;5.4;3.3;;;;;;;;;;;;;
2021/02/10 11:36:19;;;;;;;6.7;4.1;;;;;;;;;;;;;
2021/02/10 11:38:44;;;;;;;5.8;3.4;;;;;;;;;;;;;
2021/02/10 11:41:10;;;;;;;6.2;3.8;;;;;;;;;;;;;
2021/02/10 11:43:35;;;;;;;5.4;3.3;;;;;;;;;;;;;
2021/02/10 11:46:03;;;;;;;5;2.9;;;;;;;;;;;;;
2021/02/10 11:48:28;;;;;;;5.5;3.6;;;;;;;;;;;;;
2021/02/10 11:50:53;;;;;;;6.2;3.2;;;;;;;;;;;;;
2021/02/10 11:53:18;;;;;;;6.9;3.6;;;;;;;;;;;;;
2021/02/10 11:55:46;;;;;;;6.4;3.4;;;;;;;;;;;;;
2021/02/10 11:58:12;;;;;;;6.2;3.7;;;;;;;;;;;;;
2021/02/10 12:00:43;;;;;;;7;3.8;;;;;;;;;;;;;
2021/02/10 12:03:11;;;;;;;11.8;4.5;;;;;;;;;;;;;
2021/02/10 12:05:36;;;;;;;7;4;;;;;;;;;;;;;
2021/02/10 12:08:03;;;;;;;6.6;3.7;;;;;;;;;;;;;
2021/02/10 12:10:37;;;;;;;6.3;4.1;;;;;;;;;;;;;
2021/02/10 12:13:05;;;;;;;6.2;4.4;;;;;;;;;;;;;
2021/02/10 12:15:32;;;;;;;8.1;4.6;;;;;;;;;;;;;
2021/02/10 12:17:58;;;;;;;6.3;3.8;;;;;;;;;;;;;
2021/02/10 12:20:28;;;;;;;6.8;3.4;;;;;;;;;;;;;
2021/02/10 12:22:56;;;;;;;11.6;5.7;;;;;;;;;;;;;
2021/02/10 12:25:22;;;;;;;7.6;4.1;;;;;;;;;;;;;
2021/02/10 12:27:51;;;;;;;10.7;4.6;;;;;;;;;;;;;
2021/02/10 12:30:20;;;;;;;7.6;3.8;;;;;;;;;;;;;
2021/02/10 12:32:46;;;;;;;9.5;5;;;;;;;;;;;;;
2021/02/10 12:35:16;;;;;;;5.8;3.5;;;;;;;;;;;;;
2021/02/10 12:37:43;;;;;;;5.3;3.3;;;;;;;;;;;;;
2021/02/10 12:40:08;;;;;;;5.1;3.9;;;;;;;;;;;;;
2021/02/10 12:42:35;;;;;;;7.1;3.3;;;;;;;;;;;;;
2021/02/10 12:45:00;;;;;;;6.8;4;;;;;;;;;;;;;
2021/02/10 12:47:26;;;;;;;10.5;3.5;;;;;;;;;;;;;
2021/02/10 12:49:51;;;;;;;5.6;3;;;;;;;;;;;;;
2021/02/10 12:52:17;;;;;;;4.4;2.8;;;;;;;;;;;;;
2021/02/10 12:54:42;;;;;;;5.9;3.2;;;;;;;;;;;;;
2021/02/10 12:57:10;;;;;;;4.4;3.1;;;;;;;;;;;;;
2021/02/10 12:59:36;;;;;;;4.3;2.9;;;;;;;;;;;;;
2021/02/10 13:02:02;;;;;;;4.1;3.1;;;;;;;;;;;;;
2021/02/10 13:04:27;;;;;;;7.6;3.3;;;;;;;;;;;;;
2021/02/10 13:06:52;;;;;;;6;3.2;;;;;;;;;;;;;
2021/02/10 13:09:17;;;;;;;5;2.8;;;;;;;;;;;;;
2021/02/10 13:11:43;;;;;;;4.3;3.1;;;;;;;;;;;;;
2021/02/10 13:14:08;;;;;;;4.9;2.8;;;;;;;;;;;;;
2021/02/10 13:16:36;;;;;;;8.5;2.9;;;;;;;;;;;;;
2021/02/10 13:19:01;;;;;;;8.2;3.1;;;;;;;;;;;;;
2021/02/10 13:21:26;;;;;;;5.5;3.4;;;;;;;;;;;;;
2021/02/10 13:23:51;;;;;;;4.7;3.1;;;;;;;;;;;;;
2021/02/10 13:26:16;;;;;;;5.1;2.8;;;;;;;;;;;;;
2021/02/10 13:28:41;;;;;;;4.9;2.7;;;;;;;;;;;;;
2021/02/10 13:31:07;;;;;;;6;3.1;;;;;;;;;;;;;
2021/02/10 13:33:32;;;;;;;5.2;3.3;;;;;;;;;;;;;
2021/02/10 13:36:00;;;;;;;5.1;2.8;;;;;;;;;;;;;
2021/02/10 13:38:25;;;;;;;4.7;3.1;;;;;;;;;;;;;
2021/02/10 13:40:53;;;;;;;4;3;;;;;;;;;;;;;
2021/02/10 13:43:22;;;;;;;5.2;3.3;;;;;;;;;;;;;
2021/02/10 13:45:47;;;;;;;5.5;2.8;;;;;;;;;;;;;
2021/02/10 13:48:13;;;;;;;5.9;3.2;;;;;;;;;;;;;
2021/02/10 13:50:38;;;;;;;8.5;3.8;;;;;;;;;;;;;
2021/02/10 13:53:04;;;;;;;4.8;3.2;;;;;;;;;;;;;
2021/02/10 13:55:29;;;;;;;4.9;3.5;;;;;;;;;;;;;
2021/02/10 13:57:56;;;;;;;6.9;3.5;;;;;;;;;;;;;
2021/02/10 14:00:21;;;;;;;4.8;3.2;;;;;;;;;;;;;
2021/02/10 14:02:48;;;;;;;4.4;3.3;;;;;;;;;;;;;
2021/02/10 14:05:13;;;;;;;5;3.2;;;;;;;;;;;;;
2021/02/10 14:07:39;;;;;;;6.9;3.9;;;;;;;;;;;;;
2021/02/10 14:10:04;;;;;;;4.5;3.2;;;;;;;;;;;;;
2021/02/10 14:12:30;;;;;;;4.1;2.7;;;;;;;;;;;;;
2021/02/10 14:14:55;;;;;;;3.5;2.8;;;;;;;;;;;;;
2021/02/10 14:17:22;;;;;;;5.3;3.2;;;;;;;;;;;;;
2021/02/10 14:19:47;;;;;;;4.4;3.2;;;;;;;;;;;;;
2021/02/10 14:22:14;;;;;;;6.4;3.6;;;;;;;;;;;;;
2021/02/10 14:24:38;;;;;;;6;3.6;;;;;;;;;;;;;
2021/02/10 14:27:04;;;;;;;6.2;3.5;;;;;;;;;;;;;
2021/02/10 14:29:29;;;;;;;6.8;3.8;;;;;;;;;;;;;
2021/02/10 14:31:55;;;;;;;5.2;3.6;;;;;;;;;;;;;
2021/02/10 14:34:20;;;;;;;5.7;3.7;;;;;;;;;;;;;
2021/02/10 14:36:47;;;;;;;5.8;3.6;;;;;;;;;;;;;
2021/02/10 14:39:12;;;;;;;5.6;3.2;;;;;;;;;;;;;
2021/02/10 14:41:39;;;;;;;5.5;3.1;;;;;;;;;;;;;
2021/02/10 14:44:05;;;;;;;4.8;3.5;;;;;;;;;;;;;
2021/02/10 14:46:30;;;;;;;5.1;3.2;;;;;;;;;;;;;
2021/02/10 14:48:55;;;;;;;6.6;4.1;;;;;;;;;;;;;
2021/02/10 14:51:21;;;;;;;6.2;3.6;;;;;;;;;;;;;
2021/02/10 14:53:47;;;;;;;5.5;3.6;;;;;;;;;;;;;
2021/02/10 14:56:12;;;;;;;5.9;4.1;;;;;;;;;;;;;
2021/02/10 14:58:37;;;;;;;9;4.1;;;;;;;;;;;;;
2021/02/10 15:01:04;;;;;;;6.9;3.8;;;;;;;;;;;;;
2021/02/10 15:03:29;;;;;;;6.4;3.9;;;;;;;;;;;;;
2021/02/10 15:05:55;;;;;;;4.9;3.7;;;;;;;;;;;;;
2021/02/10 15:08:20;;;;;;;7.1;3.8;;;;;;;;;;;;;
2021/02/10 15:10:48;;;;;;;8.6;4.6;;;;;;;;;;;;;
2021/02/10 15:13:13;;;;;;;7.2;3.5;;;;;;;;;;;;;
2021/02/10 15:15:42;;;;;;;7.5;4.3;;;;;;;;;;;;;
2021/02/10 15:18:08;;;;;;;5.2;3.6;;;;;;;;;;;;;
2021/02/10 15:20:33;;;;;;;9.2;4.5;;;;;;;;;;;;;
2021/02/10 15:22:58;;;;;;;5.9;3.4;;;;;;;;;;;;;
2021/02/10 15:25:24;;;;;;;8.2;4;;;;;;;;;;;;;
2021/02/10 15:27:50;;;;;;;5.6;3.7;;;;;;;;;;;;;
2021/02/10 15:30:15;;;;;;;9.3;4.4;;;;;;;;;;;;;
2021/02/10 15:32:41;;;;;;;4.9;3.4;;;;;;;;;;;;;
2021/02/10 15:35:06;;;;;;;6.9;4.1;;;;;;;;;;;;;
2021/02/10 15:37:32;;;;;;;5.3;3.4;;;;;;;;;;;;;
2021/02/10 15:39:57;;;;;;;4.8;3.2;;;;;;;;;;;;;
2021/02/10 15:42:24;;;;;;;5.2;3.4;;;;;;;;;;;;;
2021/02/10 15:44:49;;;;;;;6.3;3.9;;;;;;;;;;;;;
2021/02/10 15:47:15;;;;;;;4.3;3.1;;;;;;;;;;;;;
2021/02/10 15:49:40;;;;;;;6;4.3;;;;;;;;;;;;;
2021/02/10 15:52:06;;;;;;;3.1;2.6;;;;;;;;;;;;;
2021/02/10 15:54:31;;;;;;;8.7;3.8;;;;;;;;;;;;;
2021/02/10 15:56:57;;;;;;;3.3;2.4;;;;;;;;;;;;;
2021/02/10 15:59:22;;;;;;;5.2;3;;;;;;;;;;;;;
2021/02/10 16:01:48;;;;;;;6.4;4.1;;;;;;;;;;;;;
2021/02/10 16:04:13;;;;;;;7;4.1;;;;;;;;;;;;;
2021/02/10 16:06:40;;;;;;;4.3;3.1;;;;;;;;;;;;;
2021/02/10 16:09:05;;;;;;;6.3;4;;;;;;;;;;;;;
2021/02/10 16:11:32;;;;;;;8.2;3.9;;;;;;;;;;;;;
2021/02/10 16:13:57;;;;;;;5.7;2.6;;;;;;;;;;;;;
2021/02/10 16:16:22;;;;;;;7.4;4.2;;;;;;;;;;;;;
2021/02/10 16:18:47;;;;;;;5.6;4.1;;;;;;;;;;;;;
2021/02/10 16:21:13;;;;;;;5.3;3.5;;;;;;;;;;;;;
2021/02/10 16:23:38;;;;;;;5.3;3.1;;;;;;;;;;;;;
2021/02/10 16:26:05;;;;;;;9.2;5;;;;;;;;;;;;;
2021/02/10 16:28:30;;;;;;;4.2;2.4;;;;;;;;;;;;;
2021/02/10 16:30:58;;;;;;;4.7;3.3;;;;;;;;;;;;;
2021/02/10 16:33:23;;;;;;;7;3.8;;;;;;;;;;;;;
2021/02/10 16:35:49;;;;;;;9.9;4.4;;;;;;;;;;;;;
2021/02/10 16:38:14;;;;;;;4.3;3.3;;;;;;;;;;;;;
2021/02/10 16:40:43;;;;;;;7;3.7;;;;;;;;;;;;;
2021/02/10 16:43:08;;;;;;;7.1;4;;;;;;;;;;;;;
2021/02/10 16:45:33;;;;;;;5.1;3.2;;;;;;;;;;;;;
2021/02/10 16:47:58;;;;;;;3.2;2.7;;;;;;;;;;;;;
2021/02/10 16:50:24;;;;;;;8.6;4.7;;;;;;;;;;;;;
2021/02/10 16:52:49;;;;;;;6.8;3.4;;;;;;;;;;;;;
2021/02/10 16:55:14;;;;;;;3.8;2.8;;;;;;;;;;;;;
2021/02/10 16:57:39;;;;;;;5;3.4;;;;;;;;;;;;;
2021/02/10 17:00:04;;;;;;;6.9;3.7;;;;;;;;;;;;;
2021/02/10 17:02:30;;;;;;;6.3;3.6;;;;;;;;;;;;;
2021/02/10 17:04:55;;;;;;;6.7;3.7;;;;;;;;;;;;;
2021/02/10 17:07:21;;;;;;;5;3.1;;;;;;;;;;;;;
2021/02/10 17:09:46;;;;;;;6.4;3.5;;;;;;;;;;;;;
2021/02/10 17:12:11;;;;;;;4.6;3.2;;;;;;;;;;;;;
2021/02/10 17:14:36;;;;;;;6.7;3.8;;;;;;;;;;;;;
2021/02/10 17:17:02;;;;;;;8.3;5.2;;;;;;;;;;;;;
2021/02/10 17:19:27;;;;;;;8.2;3.5;;;;;;;;;;;;;
2021/02/10 17:21:52;;;;;;;4.7;3;;;;;;;;;;;;;
2021/02/10 17:24:18;;;;;;;7.3;4;;;;;;;;;;;;;
2021/02/10 17:26:43;;;;;;;5.2;2.7;;;;;;;;;;;;;
2021/02/10 17:29:09;;;;;;;5;3.4;;;;;;;;;;;;;
2021/02/10 17:31:34;;;;;;;5.4;3.2;;;;;;;;;;;;;
2021/02/10 17:34:00;;;;;;;7.1;4.1;;;;;;;;;;;;;
2021/02/10 17:36:25;;;;;;;11.3;5.2;;;;;;;;;;;;;
2021/02/10 17:38:51;;;;;;;6;3.6;;;;;;;;;;;;;
2021/02/10 17:41:16;;;;;;;8.8;4.8;;;;;;;;;;;;;
2021/02/10 17:43:46;;;;;;;8.7;5.2;;;;;;;;;;;;;
2021/02/10 17:46:08;;;;;;;8.6;4.9;;;;;;;;;;;;;
2021/02/10 17:48:33;;;;;;;6.4;4.4;;;;;;;;;;;;;
2021/02/10 17:50:59;;;;;;;10.2;5.3;;;;;;;;;;;;;
2021/02/10 17:53:24;;;;;;;10;5.6;;;;;;;;;;;;;
2021/02/10 17:55:51;;;;;;;9.4;5.5;;;;;;;;;;;;;
2021/02/10 17:58:15;;;;;;;9.6;5.5;;;;;;;;;;;;;
2021/02/10 18:00:42;;;;;;;8.3;5.6;;;;;;;;;;;;;
2021/02/10 18:03:07;;;;;;;7.9;5.5;;;;;;;;;;;;;
2021/02/10 18:05:32;;;;;;;12.7;5.7;;;;;;;;;;;;;
2021/02/10 18:07:58;;;;;;;11.4;6.2;;;;;;;;;;;;;
2021/02/10 18:10:24;;;;;;;7.9;6.1;;;;;;;;;;;;;
2021/02/10 18:12:50;;;;;;;10.4;5.9;;;;;;;;;;;;;
2021/02/10 18:15:15;;;;;;;10.5;6.7;;;;;;;;;;;;;
2021/02/10 18:17:41;;;;;;;7.4;5.3;;;;;;;;;;;;;
2021/02/10 18:20:06;;;;;;;9.7;6.1;;;;;;;;;;;;;
2021/02/10 18:22:33;;;;;;;9.5;5.9;;;;;;;;;;;;;
2021/02/10 18:24:59;;;;;;;12.5;5.5;;;;;;;;;;;;;
2021/02/10 18:27:25;;;;;;;8.5;5.2;;;;;;;;;;;;;
2021/02/10 18:29:50;;;;;;;10.2;4.9;;;;;;;;;;;;;
2021/02/10 18:32:17;;;;;;;10.4;5.1;;;;;;;;;;;;;
2021/02/10 18:34:40;;;;;;;7.9;4.9;;;;;;;;;;;;;
2021/02/10 18:37:06;;;;;;;6.6;4.3;;;;;;;;;;;;;
2021/02/10 18:39:32;;;;;;;9.2;4.8;;;;;;;;;;;;;
2021/02/10 18:41:58;;;;;;;7.2;4.4;;;;;;;;;;;;;
2021/02/10 18:44:23;;;;;;;7.8;5.1;;;;;;;;;;;;;
2021/02/10 18:46:48;;;;;;;7.2;4.7;;;;;;;;;;;;;
2021/02/10 18:49:13;;;;;;;7.3;4.6;;;;;;;;;;;;;
2021/02/10 18:51:38;;;;;;;10.8;5.2;;;;;;;;;;;;;
2021/02/10 18:54:03;;;;;;;14.4;6.1;;;;;;;;;;;;;
2021/02/10 18:56:29;;;;;;;7.7;5.3;;;;;;;;;;;;;
2021/02/10 18:58:55;;;;;;;9.8;4.6;;;;;;;;;;;;;
2021/02/10 19:01:19;;;;;;;9.2;5.8;;;;;;;;;;;;;
2021/02/10 19:03:44;;;;;;;13.2;5.9;;;;;;;;;;;;;
2021/02/10 19:06:10;;;;;;;7.6;5.5;;;;;;;;;;;;;
2021/02/10 19:08:35;;;;;;;10.7;4.9;;;;;;;;;;;;;
2021/02/10 19:11:00;;;;;;;9.8;5.3;;;;;;;;;;;;;
2021/02/10 19:13:27;;;;;;;12.1;7.2;;;;;;;;;;;;;
2021/02/10 19:15:52;;;;;;;9.5;6.1;;;;;;;;;;;;;
2021/02/10 19:18:18;;;;;;;13.4;7.2;;;;;;;;;;;;;
2021/02/10 19:20:43;;;;;;;10.9;6.3;;;;;;;;;;;;;
2021/02/10 19:23:09;;;;;;;10.3;5.7;;;;;;;;;;;;;
2021/02/10 19:25:34;;;;;;;11.6;6.4;;;;;;;;;;;;;
2021/02/10 19:28:00;;;;;;;12.2;6.1;;;;;;;;;;;;;
2021/02/10 19:30:26;;;;;;;10.2;5.4;;;;;;;;;;;;;
2021/02/10 19:32:52;;;;;;;13.9;7.5;;;;;;;;;;;;;
2021/02/10 19:35:17;;;;;;;11.7;6.1;;;;;;;;;;;;;
2021/02/10 19:37:43;;;;;;;11.6;5;;;;;;;;;;;;;
2021/02/10 19:40:08;;;;;;;10.4;6.2;;;;;;;;;;;;;
2021/02/10 19:42:34;;;;;;;7.3;5.9;;;;;;;;;;;;;
2021/02/10 19:44:59;;;;;;;11.9;5.7;;;;;;;;;;;;;
2021/02/10 19:47:25;;;;;;;15.5;7.7;;;;;;;;;;;;;
2021/02/10 19:49:50;;;;;;;13.1;7;;;;;;;;;;;;;
2021/02/10 19:52:16;;;;;;;15.6;7.1;;;;;;;;;;;;;
2021/02/10 19:54:41;;;;;;;11.2;8;;;;;;;;;;;;;
2021/02/10 19:57:07;;;;;;;7;5.4;;;;;;;;;;;;;
2021/02/10 19:59:33;;;;;;;15.9;6.3;;;;;;;;;;;;;
2021/02/10 20:01:59;;;;;;;15.8;7.6;;;;;;;;;;;;;
2021/02/10 20:04:25;;;;;;;10.2;7.2;;;;;;;;;;;;;
2021/02/10 20:06:49;;;;;;;14.6;6.9;;;;;;;;;;;;;